Time,TemperatureF,DewpointF,PressureIn,WindDirection,WindDirectionDegrees,WindSpeedMPH,WindSpeedGustMPH,Humidity,HourlyPrecipIn,Conditions,Clouds,dailyrainin,SolarRadiationWatts/m^2,SoftwareType,DateUTC
2013-04-07 00:01:00,61.0,14.0,-100.00,WNW,284,8.0,19.0,16,0.00,,,0.00,0.000000,,2013-04-07 06:01:00,
2013-04-07 00:32:00,61.0,14.0,-100.00,WNW,284,8.0,19.0,16,0.00,,,0.00,0.000000,,2013-04-07 06:32:00,
2013-04-07 00:43:00,61.0,14.0,-100.00,WNW,284,8.0,19.0,16,0.00,,,0.00,0.000000,,2013-04-07 06:43:00,
2013-04-07 00:52:00,61.0,14.0,-100.00,WNW,284,8.0,19.0,16,0.00,,,0.00,0.000000,,2013-04-07 06:52:00,
2013-04-07 01:01:00,60.0,14.0,-100.00,West,262,6.0,19.0,16,0.00,,,0.00,0.000000,,2013-04-07 07:01:00,
2013-04-07 01:33:00,60.0,14.0,-100.00,West,262,6.0,19.0,16,0.00,,,0.00,0.000000,,2013-04-07 07:33:00,
2013-04-07 01:42:00,60.0,14.0,-100.00,West,262,6.0,19.0,16,0.00,,,0.00,0.000000,,2013-04-07 07:42:00,
2013-04-07 01:52:00,60.0,14.0,-100.00,West,262,6.0,19.0,16,0.00,,,0.00,0.000000,,2013-04-07 07:52:00,
2013-04-07 02:01:00,60.0,15.0,-100.00,West,269,13.0,22.0,17,0.00,,,0.00,0.000000,,2013-04-07 08:01:00,
2013-04-07 02:33:00,60.0,15.0,-100.00,West,269,13.0,22.0,17,0.00,,,0.00,0.000000,,2013-04-07 08:33:00,
2013-04-07 02:43:00,60.0,15.0,-100.00,West,269,13.0,22.0,17,0.00,,,0.00,0.000000,,2013-04-07 08:43:00,
2013-04-07 02:53:00,60.0,15.0,-100.00,West,269,13.0,22.0,17,0.00,,,0.00,0.000000,,2013-04-07 08:53:00,
2013-04-07 03:01:00,60.0,16.0,-100.00,West,280,12.0,20.0,18,0.00,,,0.00,0.000000,,2013-04-07 09:01:00,
2013-04-07 03:23:00,60.0,16.0,-100.00,West,280,12.0,20.0,18,0.00,,,0.00,0.000000,,2013-04-07 09:23:00,
2013-04-07 03:34:00,60.0,16.0,-100.00,West,280,12.0,20.0,18,0.00,,,0.00,0.000000,,2013-04-07 09:34:00,
2013-04-07 03:54:00,60.0,16.0,-100.00,West,280,12.0,20.0,18,0.00,,,0.00,0.000000,,2013-04-07 09:54:00,
2013-04-07 04:01:00,57.0,16.0,-100.00,West,271,7.0,15.0,20,0.00,,,0.00,0.000000,,2013-04-07 10:01:00,
2013-04-07 04:34:00,57.0,16.0,-100.00,West,271,7.0,15.0,20,0.00,,,0.00,0.000000,,2013-04-07 10:34:00,
2013-04-07 04:43:00,57.0,16.0,-100.00,West,271,7.0,15.0,20,0.00,,,0.00,0.000000,,2013-04-07 10:43:00,
2013-04-07 04:54:00,57.0,16.0,-100.00,West,271,7.0,15.0,20,0.00,,,0.00,0.000000,,2013-04-07 10:54:00,
2013-04-07 05:01:00,57.0,19.0,-100.00,WNW,292,7.0,15.0,22,0.00,,,0.00,0.000000,,2013-04-07 11:01:00,
2013-04-07 05:33:00,57.0,19.0,-100.00,WNW,292,7.0,15.0,22,0.00,,,0.00,0.000000,,2013-04-07 11:33:00,
2013-04-07 05:43:00,57.0,19.0,-100.00,WNW,292,7.0,15.0,22,0.00,,,0.00,0.000000,,2013-04-07 11:43:00,
2013-04-07 05:53:00,57.0,19.0,-100.00,WNW,292,7.0,15.0,22,0.00,,,0.00,0.000000,,2013-04-07 11:53:00,
2013-04-07 06:01:00,56.0,20.0,-100.00,West,264,7.0,20.0,24,0.00,,,0.00,0.000000,,2013-04-07 12:01:00,
2013-04-07 06:23:00,56.0,20.0,-100.00,West,264,7.0,20.0,24,0.00,,,0.00,0.000000,,2013-04-07 12:23:00,
2013-04-07 06:34:00,56.0,20.0,-100.00,West,264,7.0,20.0,24,0.00,,,0.00,0.000000,,2013-04-07 12:34:00,
2013-04-07 06:43:00,56.0,20.0,-100.00,West,264,7.0,20.0,24,0.00,,,0.00,0.000000,,2013-04-07 12:43:00,
2013-04-07 07:01:00,55.0,21.0,-100.00,SW,234,5.0,11.0,26,0.00,,,0.00,2.000000,,2013-04-07 13:01:00,
2013-04-07 07:23:00,55.0,21.0,-100.00,SW,234,5.0,11.0,26,0.00,,,0.00,2.000000,,2013-04-07 13:23:00,
2013-04-07 07:33:00,55.0,21.0,-100.00,SW,234,5.0,11.0,26,0.00,,,0.00,2.000000,,2013-04-07 13:33:00,
2013-04-07 07:43:00,55.0,21.0,-100.00,SW,234,5.0,11.0,26,0.00,,,0.00,2.000000,,2013-04-07 13:43:00,
2013-04-07 07:53:00,55.0,21.0,-100.00,SW,234,5.0,11.0,26,0.00,,,0.00,2.000000,,2013-04-07 13:53:00,
2013-04-07 08:01:00,59.0,24.0,-100.00,West,270,7.0,15.0,26,0.00,,,0.00,74.000000,,2013-04-07 14:01:00,
2013-04-07 08:33:00,59.0,24.0,-100.00,West,270,7.0,15.0,26,0.00,,,0.00,74.000000,,2013-04-07 14:33:00,
2013-04-07 08:44:00,59.0,24.0,-100.00,West,270,7.0,15.0,26,0.00,,,0.00,74.000000,,2013-04-07 14:44:00,
2013-04-07 08:54:00,59.0,24.0,-100.00,West,270,7.0,15.0,26,0.00,,,0.00,74.000000,,2013-04-07 14:54:00,
2013-04-07 10:01:00,63.0,24.0,-100.00,WNW,289,8.0,15.0,22,-99.99,,,0.00,587.000000,,2013-04-07 16:01:00,
2013-04-07 10:34:00,63.0,24.0,-100.00,WNW,289,8.0,15.0,22,-99.99,,,0.00,587.000000,,2013-04-07 16:34:00,
2013-04-07 10:44:00,63.0,24.0,-100.00,WNW,289,8.0,15.0,22,-99.99,,,0.00,587.000000,,2013-04-07 16:44:00,
2013-04-07 10:54:00,63.0,24.0,-100.00,WNW,289,8.0,15.0,22,-99.99,,,0.00,587.000000,,2013-04-07 16:54:00,
2013-04-07 11:01:00,67.0,25.0,-100.00,WSW,241,10.0,17.0,20,0.00,,,0.00,783.000000,,2013-04-07 17:01:00,
2013-04-07 11:24:00,67.0,25.0,-100.00,WSW,241,10.0,17.0,20,0.00,,,0.00,783.000000,,2013-04-07 17:24:00,
2013-04-07 11:33:00,67.0,25.0,-100.00,WSW,241,10.0,17.0,20,0.00,,,0.00,783.000000,,2013-04-07 17:33:00,
2013-04-07 11:43:00,67.0,25.0,-100.00,WSW,241,10.0,17.0,20,0.00,,,0.00,783.000000,,2013-04-07 17:43:00,
2013-04-07 11:54:00,67.0,25.0,-100.00,WSW,241,10.0,17.0,20,0.00,,,0.00,783.000000,,2013-04-07 17:54:00,
2013-04-07 12:01:00,69.0,25.0,-100.00,West,278,10.0,23.0,19,0.00,,,0.00,923.000000,,2013-04-07 18:01:00,
2013-04-07 12:33:00,69.0,25.0,-100.00,West,278,10.0,23.0,19,0.00,,,0.00,923.000000,,2013-04-07 18:33:00,
2013-04-07 12:44:00,69.0,25.0,-100.00,West,278,10.0,23.0,19,0.00,,,0.00,923.000000,,2013-04-07 18:44:00,
2013-04-07 12:53:00,69.0,25.0,-100.00,West,278,10.0,23.0,19,0.00,,,0.00,923.000000,,2013-04-07 18:53:00,
2013-04-07 13:01:00,71.0,23.0,-100.00,West,273,12.0,23.0,16,0.00,,,0.00,996.000000,,2013-04-07 19:01:00,
2013-04-07 13:23:00,71.0,23.0,-100.00,West,273,12.0,23.0,16,0.00,,,0.00,996.000000,,2013-04-07 19:23:00,
2013-04-07 13:33:00,71.0,23.0,-100.00,West,273,12.0,23.0,16,0.00,,,0.00,996.000000,,2013-04-07 19:33:00,
2013-04-07 13:43:00,71.0,23.0,-100.00,West,273,12.0,23.0,16,0.00,,,0.00,996.000000,,2013-04-07 19:43:00,
2013-04-07 13:55:00,71.0,23.0,-100.00,West,273,12.0,23.0,16,0.00,,,0.00,996.000000,,2013-04-07 19:55:00,
2013-04-07 14:01:00,73.0,23.0,-100.00,West,260,13.0,26.0,15,0.00,,,0.00,1002.000000,,2013-04-07 20:01:00,
2013-04-07 14:33:00,73.0,23.0,-100.00,West,260,13.0,26.0,15,0.00,,,0.00,1002.000000,,2013-04-07 20:33:00,
2013-04-07 14:44:00,73.0,23.0,-100.00,West,260,13.0,26.0,15,0.00,,,0.00,1002.000000,,2013-04-07 20:44:00,
2013-04-07 14:54:00,73.0,23.0,-100.00,West,260,13.0,26.0,15,0.00,,,0.00,1002.000000,,2013-04-07 20:54:00,
2013-04-07 15:01:00,74.0,22.0,-100.00,West,275,13.0,25.0,14,0.00,,,0.00,929.000000,,2013-04-07 21:01:00,
2013-04-07 15:23:00,74.0,22.0,-100.00,West,275,13.0,25.0,14,0.00,,,0.00,929.000000,,2013-04-07 21:23:00,
2013-04-07 15:35:00,74.0,22.0,-100.00,West,275,13.0,25.0,14,0.00,,,0.00,929.000000,,2013-04-07 21:35:00,
2013-04-07 15:45:00,74.0,22.0,-100.00,West,275,13.0,25.0,14,0.00,,,0.00,929.000000,,2013-04-07 21:45:00,
2013-04-07 15:55:00,74.0,22.0,-100.00,West,275,13.0,25.0,14,0.00,,,0.00,929.000000,,2013-04-07 21:55:00,
2013-04-07 16:01:00,74.0,20.0,-100.00,West,265,14.0,28.0,13,0.00,,,0.00,807.000000,,2013-04-07 22:01:00,
2013-04-07 16:24:00,74.0,20.0,-100.00,West,265,14.0,28.0,13,0.00,,,0.00,807.000000,,2013-04-07 22:24:00,
2013-04-07 16:34:00,74.0,20.0,-100.00,West,265,14.0,28.0,13,0.00,,,0.00,807.000000,,2013-04-07 22:34:00,
2013-04-07 16:44:00,74.0,20.0,-100.00,West,265,14.0,28.0,13,0.00,,,0.00,807.000000,,2013-04-07 22:44:00,
2013-04-07 16:53:00,74.0,20.0,-100.00,West,265,14.0,28.0,13,0.00,,,0.00,807.000000,,2013-04-07 22:53:00,
2013-04-07 17:01:00,75.0,19.0,-100.00,West,271,11.0,29.0,12,0.00,,,0.00,622.000000,,2013-04-07 23:01:00,
2013-04-07 17:33:00,75.0,19.0,-100.00,West,271,11.0,29.0,12,0.00,,,0.00,622.000000,,2013-04-07 23:33:00,
2013-04-07 17:43:00,75.0,19.0,-100.00,West,271,11.0,29.0,12,0.00,,,0.00,622.000000,,2013-04-07 23:43:00,
2013-04-07 17:53:00,75.0,19.0,-100.00,West,271,11.0,29.0,12,0.00,,,0.00,622.000000,,2013-04-07 23:53:00,
2013-04-07 18:01:00,72.0,18.0,-100.00,West,281,14.0,34.0,13,0.00,,,0.00,403.000000,,2013-04-08 00:01:00,
2013-04-07 18:23:00,72.0,18.0,-100.00,West,281,14.0,34.0,13,0.00,,,0.00,403.000000,,2013-04-08 00:23:00,
2013-04-07 18:33:00,72.0,18.0,-100.00,West,281,14.0,34.0,13,0.00,,,0.00,403.000000,,2013-04-08 00:33:00,
2013-04-07 18:43:00,72.0,18.0,-100.00,West,281,14.0,34.0,13,0.00,,,0.00,403.000000,,2013-04-08 00:43:00,
2013-04-07 18:53:00,72.0,18.0,-100.00,West,281,14.0,34.0,13,0.00,,,0.00,403.000000,,2013-04-08 00:53:00,
2013-04-07 19:01:00,68.0,17.0,-100.00,West,278,18.0,31.0,14,0.00,,,0.00,157.000000,,2013-04-08 01:01:00,
2013-04-07 19:23:00,68.0,17.0,-100.00,West,278,18.0,31.0,14,0.00,,,0.00,157.000000,,2013-04-08 01:23:00,
2013-04-07 19:34:00,68.0,17.0,-100.00,West,278,18.0,31.0,14,0.00,,,0.00,157.000000,,2013-04-08 01:34:00,
2013-04-07 19:44:00,68.0,17.0,-100.00,West,278,18.0,31.0,14,0.00,,,0.00,157.000000,,2013-04-08 01:44:00,
2013-04-07 19:55:00,68.0,17.0,-100.00,West,278,18.0,31.0,14,0.00,,,0.00,157.000000,,2013-04-08 01:55:00,
2013-04-07 20:01:00,65.0,18.0,-100.00,WNW,287,15.0,30.0,16,0.00,,,0.00,8.000000,,2013-04-08 02:01:00,
2013-04-07 20:33:00,65.0,18.0,-100.00,WNW,287,15.0,30.0,16,0.00,,,0.00,8.000000,,2013-04-08 02:33:00,
2013-04-07 20:48:00,65.0,18.0,-100.00,WNW,287,15.0,30.0,16,0.00,,,0.00,8.000000,,2013-04-08 02:48:00,
2013-04-07 20:54:00,65.0,18.0,-100.00,WNW,287,15.0,30.0,16,0.00,,,0.00,8.000000,,2013-04-08 02:54:00,
2013-04-07 21:01:00,64.0,17.0,-100.00,West,275,12.0,27.0,16,0.00,,,0.00,0.000000,,2013-04-08 03:01:00,
2013-04-07 21:37:00,64.0,17.0,-100.00,West,275,12.0,27.0,16,0.00,,,0.00,0.000000,,2013-04-08 03:37:00,
2013-04-07 21:48:00,64.0,17.0,-100.00,West,275,12.0,27.0,16,0.00,,,0.00,0.000000,,2013-04-08 03:48:00,
2013-04-07 21:57:00,64.0,17.0,-100.00,West,275,12.0,27.0,16,0.00,,,0.00,0.000000,,2013-04-08 03:57:00,
2013-04-07 22:01:00,62.0,17.0,-100.00,NW,310,5.0,20.0,17,0.00,,,0.00,0.000000,,2013-04-08 04:01:00,
2013-04-07 22:23:00,62.0,17.0,-100.00,NW,310,5.0,20.0,17,0.00,,,0.00,0.000000,,2013-04-08 04:23:00,
2013-04-07 22:34:00,62.0,17.0,-100.00,NW,310,5.0,20.0,17,0.00,,,0.00,0.000000,,2013-04-08 04:34:00,
2013-04-07 22:44:00,62.0,17.0,-100.00,NW,310,5.0,20.0,17,0.00,,,0.00,0.000000,,2013-04-08 04:44:00,
2013-04-07 22:53:00,62.0,17.0,-100.00,NW,310,5.0,20.0,17,0.00,,,0.00,0.000000,,2013-04-08 04:53:00,
2013-04-07 23:01:00,61.0,16.0,-100.00,NW,325,7.0,16.0,17,0.00,,,0.00,0.000000,,2013-04-08 05:01:00,
2013-04-07 23:32:00,61.0,16.0,-100.00,NW,325,7.0,16.0,17,0.00,,,0.00,0.000000,,2013-04-08 05:32:00,
2013-04-07 23:42:00,61.0,16.0,-100.00,NW,325,7.0,16.0,17,0.00,,,0.00,0.000000,,2013-04-08 05:42:00,
2013-04-07 23:52:00,61.0,16.0,-100.00,NW,325,7.0,16.0,17,0.00,,,0.00,0.000000,,2013-04-08 05:52:00,